Rio do Sul, Brazil
Current Conditions -  °F | °C
As of 7:00 PM on Tuesday 21 Oct 2014 (Local Time) from SBNF Reporting Station
Few Clouds Few Clouds  
Wind Chill: 72°   Ceiling: Unl
Heat Index: 72°   Visibility: 6mi
Dew Point: 54°   Wind: 8mph
Humidity: 53%   Direction: 90°E
Pressure: 30.15"   Gusts: NA
Location:  27.21°S, 49.64°W
Report Text: SBNF 212100Z 09007KT 9999 FEW025 22/12 Q1021
Loading
Personal Weather Stations






























Interactive Weather Map
Tropical Storm Tracking
New forecast layout! Learn more

10-Day Weather Forecast

Advertisements
Track Severe Weather on mobile